createdAt,value
2023-04-14T00:00:43.799Z,13.50
2023-04-14T00:03:15.018Z,13.60
2023-04-14T00:05:46.325Z,13.50
2023-04-14T00:08:17.215Z,13.60
2023-04-14T00:10:48.096Z,13.50
2023-04-14T00:13:19.015Z,13.40
2023-04-14T00:15:49.960Z,13.20
2023-04-14T00:18:21.109Z,13.30
2023-04-14T00:20:54.184Z,13.30
2023-04-14T00:23:25.099Z,13.30
2023-04-14T00:25:56.133Z,13.30
2023-04-14T00:28:27.014Z,13.30
2023-04-14T00:30:57.958Z,13.20
2023-04-14T00:33:28.880Z,13.20
2023-04-14T00:35:59.840Z,13.10
2023-04-14T00:38:31.500Z,13.10
2023-04-14T00:41:02.410Z,12.90
2023-04-14T00:43:33.312Z,13.00
2023-04-14T00:46:04.250Z,12.90
2023-04-14T00:48:35.406Z,12.50
2023-04-14T00:51:06.763Z,12.70
2023-04-14T00:53:39.115Z,12.80
2023-04-14T00:56:10.050Z,12.70
2023-04-14T00:58:42.096Z,12.70
2023-04-14T01:01:13.594Z,12.80
2023-04-14T01:03:44.891Z,12.60
2023-04-14T01:06:15.981Z,12.70
2023-04-14T01:08:48.564Z,12.60
2023-04-14T01:11:28.438Z,12.60
2023-04-14T01:14:23.330Z,12.50
2023-04-14T01:17:01.561Z,12.60
2023-04-14T01:20:12.615Z,12.40
2023-04-14T01:22:59.189Z,12.50
2023-04-14T01:26:06.052Z,12.40
2023-04-14T01:28:56.473Z,12.50
2023-04-14T01:31:54.636Z,12.70
2023-04-14T01:34:36.753Z,12.50
2023-04-14T01:37:15.187Z,12.30
2023-04-14T01:39:52.847Z,12.40
2023-04-14T01:42:31.296Z,12.30
2023-04-14T01:45:20.237Z,12.30
2023-04-14T01:47:52.748Z,12.30
2023-04-14T01:50:24.456Z,12.30
2023-04-14T01:52:55.924Z,12.10
2023-04-14T01:55:30.955Z,11.90
2023-04-14T01:58:02.692Z,12.30
2023-04-14T02:00:36.489Z,12.00
2023-04-14T02:03:07.896Z,12.00
2023-04-14T02:05:41.690Z,12.10
2023-04-14T02:08:14.070Z,12.30
2023-04-14T02:10:48.585Z,12.00
2023-04-14T02:13:22.146Z,12.20
2023-04-14T02:15:53.637Z,12.60
2023-04-14T02:18:25.811Z,12.20
2023-04-14T02:20:59.390Z,11.90
2023-04-14T02:23:32.157Z,12.10
2023-04-14T02:26:14.181Z,11.90
2023-04-14T02:29:02.936Z,11.60
2023-04-14T02:31:36.882Z,11.50
2023-04-14T02:34:11.669Z,11.80
2023-04-14T02:36:52.949Z,11.90
2023-04-14T02:39:32.225Z,11.60
2023-04-14T02:42:14.306Z,11.70
2023-04-14T02:44:52.070Z,11.60
2023-04-14T02:47:28.861Z,11.60
2023-04-14T02:50:03.139Z,11.60
2023-04-14T02:52:34.465Z,11.60
2023-04-14T02:55:07.852Z,11.50
2023-04-14T02:57:39.857Z,11.60
2023-04-14T03:00:12.387Z,11.70
2023-04-14T03:02:47.563Z,11.60
2023-04-14T03:05:19.174Z,11.90
2023-04-14T03:07:53.017Z,11.50
2023-04-14T03:10:24.756Z,11.50
2023-04-14T03:12:58.757Z,11.50
2023-04-14T03:15:32.455Z,11.70
2023-04-14T03:18:03.986Z,11.50
2023-04-14T03:20:36.166Z,11.70
2023-04-14T03:23:11.883Z,11.70
2023-04-14T03:25:43.141Z,11.80
2023-04-14T03:28:18.651Z,11.50
2023-04-14T03:30:54.030Z,11.60
2023-04-14T03:33:28.418Z,11.80
2023-04-14T03:36:01.652Z,11.70
2023-04-14T03:38:34.751Z,11.60
2023-04-14T03:41:07.537Z,11.50
2023-04-14T03:43:39.339Z,11.50
2023-04-14T03:46:11.198Z,11.50
2023-04-14T03:48:44.381Z,11.70
2023-04-14T03:51:16.573Z,11.80
2023-04-14T03:53:48.305Z,11.60
2023-04-14T03:56:20.577Z,11.60
2023-04-14T03:58:54.836Z,11.70
2023-04-14T04:01:27.047Z,11.70
2023-04-14T04:04:00.957Z,11.90
2023-04-14T04:06:33.105Z,12.00
2023-04-14T04:09:05.965Z,12.10
2023-04-14T04:11:38.774Z,12.10
2023-04-14T04:14:10.983Z,12.20
2023-04-14T04:16:43.552Z,12.40
2023-04-14T04:19:16.012Z,12.10
2023-04-14T04:21:53.215Z,12.10
2023-04-14T04:24:27.772Z,11.80
2023-04-14T04:26:59.426Z,12.10
2023-04-14T04:29:30.606Z,12.80
2023-04-14T04:32:01.767Z,12.30
2023-04-14T04:34:33.473Z,12.10
2023-04-14T04:37:05.317Z,11.80
2023-04-14T04:39:36.297Z,11.90
2023-04-14T04:42:07.936Z,11.70
2023-04-14T04:44:38.964Z,11.60
2023-04-14T04:47:10.969Z,11.70
2023-04-14T04:49:42.067Z,11.60
2023-04-14T04:52:12.939Z,11.40
2023-04-14T04:54:44.031Z,11.40
2023-04-14T04:57:14.950Z,11.20
2023-04-14T04:59:46.534Z,11.00
2023-04-14T05:02:17.608Z,11.10
2023-04-14T05:04:48.988Z,11.10
2023-04-14T05:07:19.946Z,11.00
2023-04-14T05:09:50.874Z,10.90
2023-04-14T05:12:55.393Z,11.10
2023-04-14T05:15:17.140Z,10.90
2023-04-14T05:17:48.087Z,11.10
2023-04-14T05:20:19.002Z,10.80
2023-04-14T05:22:49.905Z,11.00
2023-04-14T05:25:20.984Z,10.90
2023-04-14T05:27:51.879Z,11.10
2023-04-14T05:30:23.447Z,11.10
2023-04-14T05:32:54.575Z,11.10
2023-04-14T05:35:25.658Z,11.00
2023-04-14T05:37:56.660Z,10.90
2023-04-14T05:40:28.385Z,11.10
2023-04-14T05:42:59.439Z,11.30
2023-04-14T05:45:30.487Z,11.30
2023-04-14T05:48:01.416Z,11.40
2023-04-14T05:50:34.085Z,11.40
2023-04-14T05:53:05.007Z,11.30
2023-04-14T05:55:35.927Z,11.40
2023-04-14T05:58:07.070Z,11.60
2023-04-14T06:00:38.040Z,11.70
2023-04-14T06:03:09.158Z,11.80
2023-04-14T06:05:40.240Z,12.00
2023-04-14T06:08:11.179Z,12.00
2023-04-14T06:10:42.167Z,12.10
2023-04-14T06:13:13.029Z,12.40
2023-04-14T06:15:43.961Z,12.60
2023-04-14T06:18:14.916Z,13.00
2023-04-14T06:20:45.980Z,13.10
2023-04-14T06:23:16.904Z,12.90
2023-04-14T06:25:47.999Z,12.70
2023-04-14T06:28:19.988Z,12.70
2023-04-14T06:30:51.362Z,12.80
2023-04-14T06:33:22.373Z,12.80
2023-04-14T06:35:53.429Z,12.90
2023-04-14T06:38:25.315Z,12.90
2023-04-14T06:40:56.205Z,12.80
2023-04-14T06:43:28.906Z,13.00
2023-04-14T06:45:59.913Z,13.00
2023-04-14T06:48:30.828Z,13.00
2023-04-14T06:51:01.950Z,13.00
2023-04-14T06:53:32.853Z,13.20
2023-04-14T06:56:05.297Z,13.20
2023-04-14T06:58:36.662Z,13.30
2023-04-14T07:01:07.745Z,13.50
2023-04-14T07:03:39.040Z,13.40
2023-04-14T07:06:11.842Z,13.50
2023-04-14T07:08:43.548Z,13.80
2023-04-14T07:11:14.574Z,13.80
2023-04-14T07:13:45.561Z,13.60
2023-04-14T07:16:16.480Z,13.90
2023-04-14T07:18:47.384Z,14.00
2023-04-14T07:21:18.327Z,14.00
2023-04-14T07:23:49.213Z,14.30
2023-04-14T07:26:21.178Z,14.30
2023-04-14T07:28:52.107Z,14.30
2023-04-14T07:31:23.499Z,14.30
2023-04-14T07:33:54.455Z,14.40
2023-04-14T07:36:25.968Z,14.50
2023-04-14T07:39:02.548Z,14.40
2023-04-14T07:41:33.691Z,14.50
2023-04-14T07:44:04.591Z,14.70
2023-04-14T07:46:35.830Z,14.60
2023-04-14T07:49:06.784Z,14.80
2023-04-14T07:51:37.902Z,14.80
2023-04-14T07:54:08.950Z,14.80
2023-04-14T07:56:40.399Z,15.00
2023-04-14T07:59:11.450Z,15.30
2023-04-14T08:01:42.529Z,15.10
2023-04-14T08:04:13.583Z,15.10
2023-04-14T08:06:44.738Z,15.30
2023-04-14T08:09:15.795Z,15.50
2023-04-14T08:11:46.688Z,15.60
2023-04-14T08:14:17.729Z,15.50
2023-04-14T08:16:49.582Z,15.60
2023-04-14T08:19:20.530Z,15.80
2023-04-14T08:21:52.159Z,16.00
2023-04-14T08:24:23.255Z,15.90
2023-04-14T08:26:56.016Z,15.40
2023-04-14T08:29:27.086Z,16.10
2023-04-14T08:31:58.007Z,15.80
2023-04-14T08:34:30.000Z,15.60
2023-04-14T08:37:00.902Z,15.50
2023-04-14T08:39:31.815Z,15.00
2023-04-14T08:42:02.956Z,14.50
2023-04-14T08:44:33.876Z,15.40
2023-04-14T08:47:06.477Z,15.00
2023-04-14T08:49:44.422Z,15.30
2023-04-14T08:52:18.208Z,15.40
2023-04-14T08:54:51.263Z,16.20
2023-04-14T08:57:26.065Z,16.50
2023-04-14T09:00:00.925Z,16.50
2023-04-14T09:02:35.914Z,16.80
2023-04-14T09:05:08.173Z,16.60
2023-04-14T09:07:39.227Z,16.70
2023-04-14T09:10:12.073Z,16.40
2023-04-14T09:12:43.321Z,16.90
2023-04-14T09:15:14.524Z,16.90
2023-04-14T09:17:45.701Z,17.10
2023-04-14T09:20:37.934Z,17.10
2023-04-14T09:23:12.115Z,17.30
2023-04-14T09:25:43.614Z,17.50
2023-04-14T09:28:15.008Z,17.20
2023-04-14T09:30:46.153Z,17.70
2023-04-14T09:33:23.943Z,17.70
2023-04-14T09:35:55.302Z,17.50
2023-04-14T09:38:32.509Z,17.00
2023-04-14T09:41:06.146Z,16.70
2023-04-14T09:43:37.044Z,17.40
2023-04-14T09:46:09.779Z,17.30
2023-04-14T09:48:55.632Z,17.90
2023-04-14T09:51:32.917Z,17.80
2023-04-14T09:54:05.239Z,18.00
2023-04-14T09:56:36.513Z,18.20
2023-04-14T09:59:07.956Z,18.00
2023-04-14T10:01:38.908Z,17.70
2023-04-14T10:04:24.245Z,18.20
2023-04-14T10:06:59.265Z,18.20
2023-04-14T10:09:37.641Z,17.80
2023-04-14T10:12:12.753Z,17.90
2023-04-14T10:14:44.722Z,18.30
2023-04-14T10:17:16.424Z,18.40
2023-04-14T10:19:48.225Z,18.60
2023-04-14T10:22:21.121Z,18.70
2023-04-14T10:24:52.614Z,18.70
2023-04-14T10:27:23.529Z,18.90
2023-04-14T10:29:54.941Z,17.90
2023-04-14T10:32:31.781Z,18.10
2023-04-14T10:35:10.614Z,18.80
2023-04-14T10:37:51.749Z,19.00
2023-04-14T10:40:23.425Z,18.90
2023-04-14T10:42:56.445Z,18.80
2023-04-14T10:45:27.572Z,18.30
2023-04-14T10:47:59.388Z,18.30
2023-04-14T10:50:46.733Z,18.80
2023-04-14T10:53:17.662Z,18.80
2023-04-14T10:55:52.312Z,18.80
2023-04-14T10:58:29.365Z,19.10
2023-04-14T11:01:00.360Z,19.50
2023-04-14T11:03:34.771Z,19.20
2023-04-14T11:06:06.560Z,19.80
2023-04-14T11:08:37.461Z,20.30
2023-04-14T11:11:08.333Z,20.30
2023-04-14T11:13:39.326Z,20.50
2023-04-14T11:16:10.909Z,20.50
2023-04-14T11:18:44.917Z,20.70
2023-04-14T11:21:17.480Z,21.10
2023-04-14T11:23:49.129Z,21.30
2023-04-14T11:26:22.410Z,22.90
2023-04-14T11:28:55.685Z,23.30
2023-04-14T11:31:27.771Z,21.90
2023-04-14T11:33:58.883Z,21.50
2023-04-14T11:36:32.227Z,22.00
2023-04-14T11:39:06.857Z,22.10
2023-04-14T11:41:39.070Z,22.60
2023-04-14T11:44:10.176Z,22.00
2023-04-14T11:46:41.199Z,21.90
2023-04-14T11:49:12.907Z,21.40
2023-04-14T11:51:43.851Z,21.30
2023-04-14T11:54:14.828Z,21.20
2023-04-14T11:56:45.821Z,21.70
2023-04-14T11:59:16.868Z,21.60
2023-04-14T12:01:51.428Z,21.10
2023-04-14T12:04:22.523Z,21.50
2023-04-14T12:06:54.808Z,21.60
2023-04-14T12:09:31.295Z,21.70
2023-04-14T12:12:13.740Z,21.90
2023-04-14T12:14:49.984Z,22.20
2023-04-14T12:17:21.662Z,21.80
2023-04-14T12:19:52.928Z,21.70
2023-04-14T12:22:29.257Z,22.10
2023-04-14T12:25:00.285Z,22.20
2023-04-14T12:27:32.223Z,22.60
2023-04-14T12:30:05.469Z,21.80
2023-04-14T12:32:44.216Z,22.40
2023-04-14T12:35:15.395Z,22.90
2023-04-14T12:37:50.217Z,22.40
2023-04-14T12:40:38.994Z,22.20
2023-04-14T12:43:10.399Z,22.10
2023-04-14T12:45:47.393Z,22.70
2023-04-14T12:48:18.526Z,22.30
2023-04-14T12:50:51.181Z,22.60
2023-04-14T12:53:28.452Z,22.70
2023-04-14T12:56:09.113Z,22.30
2023-04-14T12:58:47.116Z,21.90
2023-04-14T13:01:20.912Z,22.10
2023-04-14T13:03:57.850Z,22.00
2023-04-14T13:06:28.867Z,22.30
2023-04-14T13:09:00.581Z,22.00
2023-04-14T13:11:31.751Z,22.60
2023-04-14T13:14:03.378Z,22.70
2023-04-14T13:16:34.326Z,22.90
2023-04-14T13:19:05.394Z,22.30
2023-04-14T13:21:36.937Z,23.00
2023-04-14T13:24:08.371Z,21.90
2023-04-14T13:26:39.377Z,22.80
2023-04-14T13:29:10.724Z,23.10
2023-04-14T13:31:41.730Z,22.90
2023-04-14T13:34:12.654Z,22.30
2023-04-14T13:36:43.759Z,22.60
2023-04-14T13:39:14.743Z,23.80
2023-04-14T13:41:45.656Z,24.10
2023-04-14T13:44:17.107Z,23.90
2023-04-14T13:46:49.480Z,23.40
2023-04-14T13:49:20.470Z,23.60
2023-04-14T13:51:51.797Z,24.30
2023-04-14T13:54:22.750Z,24.20
2023-04-14T13:56:53.647Z,24.10
2023-04-14T13:59:24.659Z,24.10
2023-04-14T14:01:55.691Z,23.90
2023-04-14T14:04:27.529Z,24.30
2023-04-14T14:06:58.476Z,24.50
2023-04-14T14:09:29.433Z,24.40
2023-04-14T14:12:00.329Z,24.50
2023-04-14T14:14:31.289Z,24.00
2023-04-14T14:17:02.248Z,24.00
2023-04-14T14:19:33.225Z,24.00
2023-04-14T14:22:04.287Z,24.40
2023-04-14T14:24:35.282Z,24.30
2023-04-14T14:27:06.433Z,24.10
2023-04-14T14:29:37.458Z,24.30
2023-04-14T14:32:08.369Z,24.70
2023-04-14T14:34:40.060Z,24.40
2023-04-14T14:37:12.033Z,24.30
2023-04-14T14:39:43.071Z,24.60
2023-04-14T14:42:13.955Z,24.60
2023-04-14T14:44:44.864Z,24.30
2023-04-14T14:47:15.767Z,23.50
2023-04-14T14:49:59.020Z,24.10
2023-04-14T14:52:32.283Z,24.20
2023-04-14T14:55:04.792Z,23.80
2023-04-14T14:57:35.852Z,25.20
2023-04-14T15:00:07.997Z,25.40
2023-04-14T15:02:39.137Z,25.20
2023-04-14T15:05:10.328Z,24.70
2023-04-14T15:07:41.249Z,24.00
2023-04-14T15:10:12.163Z,25.10
2023-04-14T15:12:43.052Z,25.70
2023-04-14T15:15:14.007Z,25.00
2023-04-14T15:17:45.592Z,24.50
2023-04-14T15:20:17.158Z,24.80
2023-04-14T15:22:48.120Z,25.20
2023-04-14T15:25:19.208Z,25.00
2023-04-14T15:27:51.434Z,24.50
2023-04-14T15:30:23.869Z,24.30
2023-04-14T15:32:54.849Z,25.20
2023-04-14T15:35:26.535Z,24.00
2023-04-14T15:37:57.453Z,23.80
2023-04-14T15:40:28.674Z,23.50
2023-04-14T15:42:59.607Z,24.90
2023-04-14T15:45:30.705Z,25.00
2023-04-14T15:48:01.720Z,25.40
2023-04-14T15:50:32.644Z,24.70
2023-04-14T15:53:03.672Z,25.60
2023-04-14T15:55:34.566Z,25.20
2023-04-14T15:58:05.654Z,25.50
2023-04-14T16:00:36.847Z,24.70
2023-04-14T16:03:07.953Z,25.10
2023-04-14T16:05:39.442Z,25.80
2023-04-14T16:08:10.439Z,24.90
2023-04-14T16:10:42.772Z,25.50
2023-04-14T16:13:14.786Z,25.10
2023-04-14T16:15:45.957Z,24.30
2023-04-14T16:18:16.918Z,25.80
2023-04-14T16:20:50.174Z,26.40
2023-04-14T16:23:22.010Z,25.10
2023-04-14T16:25:52.909Z,24.90
2023-04-14T16:28:23.936Z,25.60
2023-04-14T16:30:55.388Z,26.10
2023-04-14T16:33:26.363Z,26.40
2023-04-14T16:35:58.489Z,26.20
2023-04-14T16:38:29.908Z,26.10
2023-04-14T16:41:02.366Z,25.40
2023-04-14T16:43:33.899Z,26.20
2023-04-14T16:46:05.636Z,25.20
2023-04-14T16:48:37.396Z,25.70
2023-04-14T16:51:10.599Z,25.20
2023-04-14T16:53:41.565Z,25.40
2023-04-14T16:56:13.138Z,25.00
2023-04-14T16:58:44.084Z,24.40
2023-04-14T17:01:15.002Z,24.40
2023-04-14T17:03:46.156Z,24.80
2023-04-14T17:06:17.335Z,23.30
2023-04-14T17:08:48.630Z,24.00
2023-04-14T17:11:20.310Z,24.40
2023-04-14T17:13:51.208Z,23.50
2023-04-14T17:16:22.646Z,23.50
2023-04-14T17:18:53.549Z,23.20
2023-04-14T17:21:25.692Z,22.90
2023-04-14T17:23:56.896Z,22.60
2023-04-14T17:26:28.275Z,22.80
2023-04-14T17:28:59.501Z,22.70
2023-04-14T17:31:31.025Z,22.10
2023-04-14T17:34:02.845Z,21.90
2023-04-14T17:36:34.317Z,21.90
2023-04-14T17:39:06.768Z,21.80
2023-04-14T17:41:38.606Z,21.50
2023-04-14T17:44:09.520Z,21.50
2023-04-14T17:46:40.393Z,21.60
2023-04-14T17:49:11.283Z,21.10
2023-04-14T17:51:42.548Z,21.20
2023-04-14T17:54:13.496Z,21.20
2023-04-14T17:56:44.426Z,21.00
2023-04-14T17:59:16.910Z,21.10
2023-04-14T18:01:47.890Z,20.50
2023-04-14T18:04:18.879Z,20.60
2023-04-14T18:06:50.951Z,20.60
2023-04-14T18:09:22.194Z,20.50
2023-04-14T18:11:53.228Z,20.40
2023-04-14T18:14:24.251Z,19.80
2023-04-14T18:16:55.240Z,19.70
2023-04-14T18:19:26.193Z,19.80
2023-04-14T18:21:58.185Z,19.80
2023-04-14T18:28:02.864Z,20.00
2023-04-14T18:29:54.626Z,19.50
2023-04-14T18:32:25.777Z,19.40
2023-04-14T18:34:56.977Z,19.60
2023-04-14T18:37:27.970Z,19.30
2023-04-14T18:39:58.959Z,19.30
2023-04-14T18:42:31.401Z,19.40
2023-04-14T18:45:03.696Z,19.10
2023-04-14T18:47:34.893Z,18.80
2023-04-14T18:50:06.729Z,18.50
2023-04-14T18:52:37.628Z,18.90
2023-04-14T18:55:09.803Z,18.40
2023-04-14T18:57:40.658Z,18.20
2023-04-14T19:00:13.520Z,18.10
2023-04-14T19:02:44.445Z,18.50
2023-04-14T19:05:15.680Z,18.20
2023-04-14T19:07:46.561Z,17.60
2023-04-14T19:10:18.940Z,18.00
2023-04-14T19:12:49.826Z,18.00
2023-04-14T19:15:20.770Z,18.10
2023-04-14T19:17:51.879Z,17.60
2023-04-14T19:20:23.742Z,17.70
2023-04-14T19:22:54.671Z,17.60
2023-04-14T19:25:25.586Z,17.20
2023-04-14T19:28:02.102Z,17.90
2023-04-14T19:30:33.569Z,17.70
2023-04-14T19:33:04.810Z,17.60
2023-04-14T19:35:36.008Z,17.50
2023-04-14T19:38:07.862Z,17.50
2023-04-14T19:40:39.219Z,17.30
2023-04-14T19:43:10.159Z,16.80
2023-04-14T19:45:52.848Z,16.80
2023-04-14T19:48:24.593Z,16.80
2023-04-14T19:50:55.676Z,16.40
2023-04-14T19:53:27.351Z,16.60
2023-04-14T19:55:58.911Z,16.60
2023-04-14T19:58:30.722Z,16.80
2023-04-14T20:01:01.824Z,16.50
2023-04-14T20:03:34.462Z,16.40
2023-04-14T20:06:06.202Z,16.10
2023-04-14T20:08:37.705Z,15.90
2023-04-14T20:11:09.362Z,16.10
2023-04-14T20:13:40.329Z,16.30
2023-04-14T20:16:11.319Z,16.20
2023-04-14T20:18:45.350Z,16.60
2023-04-14T20:21:16.832Z,16.60
2023-04-14T20:23:48.123Z,15.60
2023-04-14T20:26:19.011Z,15.90
2023-04-14T20:28:50.399Z,15.90
2023-04-14T20:31:22.241Z,15.80
2023-04-14T20:33:53.183Z,16.20
2023-04-14T20:36:24.653Z,16.20
2023-04-14T20:38:56.014Z,16.30
2023-04-14T20:41:27.260Z,16.30
2023-04-14T20:43:58.201Z,16.20
2023-04-14T20:46:29.486Z,15.90
2023-04-14T20:49:02.721Z,15.90
2023-04-14T20:51:34.018Z,15.60
2023-04-14T20:54:05.036Z,15.60
2023-04-14T20:56:35.945Z,15.60
2023-04-14T20:59:10.323Z,14.80
2023-04-14T21:01:42.699Z,15.20
2023-04-14T21:04:14.190Z,15.40
2023-04-14T21:06:48.440Z,15.30
2023-04-14T21:09:25.158Z,15.10
2023-04-14T21:12:16.040Z,14.70
2023-04-14T21:15:45.651Z,14.90
2023-04-14T21:17:38.745Z,15.10
2023-04-14T21:20:10.995Z,14.70
2023-04-14T21:22:41.992Z,14.30
2023-04-14T21:25:13.115Z,15.00
2023-04-14T21:27:44.380Z,15.10
2023-04-14T21:30:15.762Z,14.50
2023-04-14T21:32:46.768Z,14.80
2023-04-14T21:35:17.913Z,15.00
2023-04-14T21:37:48.838Z,15.00
2023-04-14T21:40:20.369Z,15.00
2023-04-14T21:42:53.012Z,14.90
2023-04-14T21:45:25.121Z,14.90
2023-04-14T21:47:56.340Z,14.90
2023-04-14T21:50:27.226Z,15.10
2023-04-14T21:52:58.462Z,15.20
2023-04-14T21:55:29.326Z,15.10
2023-04-14T21:58:01.866Z,15.10
2023-04-14T22:00:32.827Z,15.10
2023-04-14T22:03:03.978Z,14.80
2023-04-14T22:05:34.973Z,14.80
2023-04-14T22:08:05.889Z,14.90
2023-04-14T22:10:38.312Z,14.00
2023-04-14T22:13:10.226Z,14.10
2023-04-14T22:15:43.108Z,14.20
2023-04-14T22:18:17.334Z,14.40
2023-04-14T22:20:49.263Z,14.10
2023-04-14T22:23:20.874Z,13.50
2023-04-14T22:25:51.776Z,13.60
2023-04-14T22:28:22.716Z,14.10
2023-04-14T22:30:54.279Z,13.70
2023-04-14T22:33:25.912Z,13.80
2023-04-14T22:35:57.005Z,13.30
2023-04-14T22:38:28.023Z,13.50
2023-04-14T22:40:59.270Z,13.60
2023-04-14T22:43:30.258Z,13.40
2023-04-14T22:46:01.233Z,13.70
2023-04-14T22:48:32.182Z,14.10
2023-04-14T22:51:03.168Z,14.00
2023-04-14T22:53:34.159Z,13.80
2023-04-14T22:56:05.266Z,13.20
2023-04-14T22:58:39.307Z,13.30
2023-04-14T23:01:21.261Z,13.20
2023-04-14T23:03:53.668Z,13.50
2023-04-14T23:06:24.773Z,13.70
2023-04-14T23:08:55.765Z,13.30
2023-04-14T23:11:27.137Z,13.40
2023-04-14T23:13:58.017Z,13.30
2023-04-14T23:16:28.935Z,13.10
2023-04-14T23:19:00.141Z,13.00
2023-04-14T23:21:31.121Z,12.70
2023-04-14T23:24:01.999Z,12.90
2023-04-14T23:26:32.990Z,13.20
2023-04-14T23:29:04.798Z,13.40
2023-04-14T23:31:35.941Z,13.20
2023-04-14T23:34:09.267Z,13.20
2023-04-14T23:36:40.186Z,13.40
2023-04-14T23:39:11.896Z,13.50
2023-04-14T23:41:42.764Z,13.40
2023-04-14T23:44:13.715Z,13.10
2023-04-14T23:46:45.002Z,13.00
2023-04-14T23:49:24.704Z,13.00
2023-04-14T23:52:05.702Z,13.20
2023-04-14T23:54:36.627Z,13.30
2023-04-14T23:57:07.666Z,12.80
2023-04-14T23:59:38.600Z,13.20
